sensor_id;sensor_type;location;lat;lon;timestamp;temperature;humidity
8593;DHT22;4334;49.982;8.398;2023-06-19T00:50:12;23.40;91.70
8593;DHT22;4334;49.982;8.398;2023-06-19T00:55:08;23.30;92.00
8593;DHT22;4334;49.982;8.398;2023-06-19T00:57:38;23.40;92.00
8593;DHT22;4334;49.982;8.398;2023-06-19T01:00:06;23.50;92.30
8593;DHT22;4334;49.982;8.398;2023-06-19T01:02:35;23.30;92.40
8593;DHT22;4334;49.982;8.398;2023-06-19T01:05:02;23.30;92.80
8593;DHT22;4334;49.982;8.398;2023-06-19T01:07:37;23.10;92.90
8593;DHT22;4334;49.982;8.398;2023-06-19T01:10:10;23.00;93.60
8593;DHT22;4334;49.982;8.398;2023-06-19T01:12:42;23.00;94.30
8593;DHT22;4334;49.982;8.398;2023-06-19T01:15:15;22.90;94.10
8593;DHT22;4334;49.982;8.398;2023-06-19T01:20:12;22.80;94.80
8593;DHT22;4334;49.982;8.398;2023-06-19T01:22:42;22.90;95.10
8593;DHT22;4334;49.982;8.398;2023-06-19T01:25:11;23.00;94.60
8593;DHT22;4334;49.982;8.398;2023-06-19T01:27:40;23.00;94.80
8593;DHT22;4334;49.982;8.398;2023-06-19T01:30:13;23.00;95.50
8593;DHT22;4334;49.982;8.398;2023-06-19T01:32:47;22.90;95.20
8593;DHT22;4334;49.982;8.398;2023-06-19T01:35:19;22.80;95.50
8593;DHT22;4334;49.982;8.398;2023-06-19T01:37:47;22.60;96.10
8593;DHT22;4334;49.982;8.398;2023-06-19T01:40:16;22.40;96.30
8593;DHT22;4334;49.982;8.398;2023-06-19T01:45:14;22.10;97.70
8593;DHT22;4334;49.982;8.398;2023-06-19T01:47:42;22.10;97.70
8593;DHT22;4334;49.982;8.398;2023-06-19T01:50:14;22.00;97.90
8593;DHT22;4334;49.982;8.398;2023-06-19T01:52:42;22.00;98.20
8593;DHT22;4334;49.982;8.398;2023-06-19T02:05:04;21.90;99.90
8593;DHT22;4334;49.982;8.398;2023-06-19T02:12:29;21.70;99.90
8593;DHT22;4334;49.982;8.398;2023-06-19T02:14:56;21.70;99.90
8593;DHT22;4334;49.982;8.398;2023-06-19T02:19:50;21.60;99.90
8593;DHT22;4334;49.982;8.398;2023-06-19T02:29:40;21.50;99.90
8593;DHT22;4334;49.982;8.398;2023-06-19T02:32:08;21.40;99.90
8593;DHT22;4334;49.982;8.398;2023-06-19T02:39:29;21.30;99.90
8593;DHT22;4334;49.982;8.398;2023-06-19T02:49:18;21.20;99.90
8593;DHT22;4334;49.982;8.398;2023-06-19T03:40:57;21.70;99.90
8593;DHT22;4334;49.982;8.398;2023-06-19T03:48:18;21.70;99.90
8593;DHT22;4334;49.982;8.398;2023-06-19T03:55:40;21.70;99.90
8593;DHT22;4334;49.982;8.398;2023-06-19T03:58:07;21.70;99.90
8593;DHT22;4334;49.982;8.398;2023-06-19T04:00:34;21.70;99.90
8593;DHT22;4334;49.982;8.398;2023-06-19T04:03:00;21.70;99.90
8593;DHT22;4334;49.982;8.398;2023-06-19T04:05:27;21.70;99.90
8593;DHT22;4334;49.982;8.398;2023-06-19T04:07:54;21.60;99.90
8593;DHT22;4334;49.982;8.398;2023-06-19T04:10:21;21.60;99.90
8593;DHT22;4334;49.982;8.398;2023-06-19T04:15:16;21.60;99.90
8593;DHT22;4334;49.982;8.398;2023-06-19T04:17:43;21.70;99.90
8593;DHT22;4334;49.982;8.398;2023-06-19T04:20:11;21.80;99.90
8593;DHT22;4334;49.982;8.398;2023-06-19T04:25:06;21.90;99.90
8593;DHT22;4334;49.982;8.398;2023-06-19T04:30:05;22.20;99.90
8593;DHT22;4334;49.982;8.398;2023-06-19T04:59:36;23.80;99.90
8593;DHT22;4334;49.982;8.398;2023-06-19T05:04:31;24.80;99.90
8593;DHT22;4334;49.982;8.398;2023-06-19T05:06:58;25.10;99.90
8593;DHT22;4334;49.982;8.398;2023-06-19T05:11:52;24.60;99.90
8593;DHT22;4334;49.982;8.398;2023-06-19T05:16:46;24.80;99.90
8593;DHT22;4334;49.982;8.398;2023-06-19T05:19:13;25.30;99.90
8593;DHT22;4334;49.982;8.398;2023-06-19T05:21:41;25.40;99.90
8593;DHT22;4334;49.982;8.398;2023-06-19T05:24:08;25.80;99.90
8593;DHT22;4334;49.982;8.398;2023-06-19T05:26:35;25.70;99.90
8593;DHT22;4334;49.982;8.398;2023-06-19T05:33:56;24.30;99.90
8593;DHT22;4334;49.982;8.398;2023-06-19T05:36:24;24.60;99.90
8593;DHT22;4334;49.982;8.398;2023-06-19T05:48:41;26.10;99.90
8593;DHT22;4334;49.982;8.398;2023-06-19T05:51:08;25.90;99.90
8593;DHT22;4334;49.982;8.398;2023-06-19T05:53:34;26.00;99.90
8593;DHT22;4334;49.982;8.398;2023-06-19T05:56:03;26.10;99.90
8593;DHT22;4334;49.982;8.398;2023-06-19T05:58:31;26.40;99.90
8593;DHT22;4334;49.982;8.398;2023-06-19T06:00:57;26.60;99.90
8593;DHT22;4334;49.982;8.398;2023-06-19T06:03:25;26.40;99.90
8593;DHT22;4334;49.982;8.398;2023-06-19T06:05:53;24.90;99.90
8593;DHT22;4334;49.982;8.398;2023-06-19T06:13:15;23.80;99.90
8593;DHT22;4334;49.982;8.398;2023-06-19T06:30:26;23.90;99.90
8593;DHT22;4334;49.982;8.398;2023-06-19T06:32:53;23.90;99.90
8593;DHT22;4334;49.982;8.398;2023-06-19T06:37:47;23.90;99.90
8593;DHT22;4334;49.982;8.398;2023-06-19T06:45:13;24.50;99.90
8593;DHT22;4334;49.982;8.398;2023-06-19T06:47:41;24.80;99.90
8593;DHT22;4334;49.982;8.398;2023-06-19T06:50:09;25.40;99.90
8593;DHT22;4334;49.982;8.398;2023-06-19T06:55:06;26.60;99.90
8593;DHT22;4334;49.982;8.398;2023-06-19T06:57:33;27.40;99.90
8593;DHT22;4334;49.982;8.398;2023-06-19T07:00:01;28.00;99.90
8593;DHT22;4334;49.982;8.398;2023-06-19T07:02:31;28.30;99.90
8593;DHT22;4334;49.982;8.398;2023-06-19T07:04:59;28.30;99.80
8593;DHT22;4334;49.982;8.398;2023-06-19T07:07:26;28.50;99.30
8593;DHT22;4334;49.982;8.398;2023-06-19T07:12:20;28.10;99.90
8593;DHT22;4334;49.982;8.398;2023-06-19T07:17:14;28.40;99.30
8593;DHT22;4334;49.982;8.398;2023-06-19T07:22:09;26.80;99.90
8593;DHT22;4334;49.982;8.398;2023-06-19T07:27:04;26.10;99.90
8593;DHT22;4334;49.982;8.398;2023-06-19T07:54:07;27.70;99.90
8593;DHT22;4334;49.982;8.398;2023-06-19T07:56:35;28.00;99.10
8593;DHT22;4334;49.982;8.398;2023-06-19T08:08:51;29.10;97.70
8593;DHT22;4334;49.982;8.398;2023-06-19T08:13:46;29.00;97.60
8593;DHT22;4334;49.982;8.398;2023-06-19T08:16:14;29.00;97.80
8593;DHT22;4334;49.982;8.398;2023-06-19T08:21:08;29.50;95.60
8593;DHT22;4334;49.982;8.398;2023-06-19T08:28:31;29.70;95.50
8593;DHT22;4334;49.982;8.398;2023-06-19T08:31:00;29.70;95.50
8593;DHT22;4334;49.982;8.398;2023-06-19T08:33:27;30.30;94.70
8593;DHT22;4334;49.982;8.398;2023-06-19T08:35:54;29.10;95.60
8593;DHT22;4334;49.982;8.398;2023-06-19T08:38:20;29.80;94.40
8593;DHT22;4334;49.982;8.398;2023-06-19T08:40:48;29.80;94.60
8593;DHT22;4334;49.982;8.398;2023-06-19T08:43:15;30.10;94.30
8593;DHT22;4334;49.982;8.398;2023-06-19T08:45:42;30.90;93.80
8593;DHT22;4334;49.982;8.398;2023-06-19T08:48:13;30.90;93.60
8593;DHT22;4334;49.982;8.398;2023-06-19T08:50:40;31.40;93.00
8593;DHT22;4334;49.982;8.398;2023-06-19T08:53:07;30.90;93.60
8593;DHT22;4334;49.982;8.398;2023-06-19T08:55:34;30.70;93.60
8593;DHT22;4334;49.982;8.398;2023-06-19T08:58:01;30.90;93.20
8593;DHT22;4334;49.982;8.398;2023-06-19T09:00:29;35.10;94.10
8593;DHT22;4334;49.982;8.398;2023-06-19T09:03:00;30.70;93.30
8593;DHT22;4334;49.982;8.398;2023-06-19T09:05:29;30.90;92.40
8593;DHT22;4334;49.982;8.398;2023-06-19T09:07:57;30.80;92.90
8593;DHT22;4334;49.982;8.398;2023-06-19T09:10:26;31.60;91.70
8593;DHT22;4334;49.982;8.398;2023-06-19T09:12:58;31.70;91.40
8593;DHT22;4334;49.982;8.398;2023-06-19T09:15:28;31.00;92.10
8593;DHT22;4334;49.982;8.398;2023-06-19T09:18:02;30.90;92.90
8593;DHT22;4334;49.982;8.398;2023-06-19T09:20:31;31.30;91.80
8593;DHT22;4334;49.982;8.398;2023-06-19T09:22:59;29.90;93.10
8593;DHT22;4334;49.982;8.398;2023-06-19T09:30:21;30.50;92.70
8593;DHT22;4334;49.982;8.398;2023-06-19T09:32:48;31.10;92.70
8593;DHT22;4334;49.982;8.398;2023-06-19T09:35:15;31.40;91.30
8593;DHT22;4334;49.982;8.398;2023-06-19T09:37:45;31.40;91.40
8593;DHT22;4334;49.982;8.398;2023-06-19T09:40:13;37.00;92.30
8593;DHT22;4334;49.982;8.398;2023-06-19T09:42:41;32.50;90.60
8593;DHT22;4334;49.982;8.398;2023-06-19T09:45:12;32.70;88.90
8593;DHT22;4334;49.982;8.398;2023-06-19T09:47:43;32.60;89.40
8593;DHT22;4334;49.982;8.398;2023-06-19T09:50:13;32.00;89.20
8593;DHT22;4334;49.982;8.398;2023-06-19T09:52:40;32.30;88.20
8593;DHT22;4334;49.982;8.398;2023-06-19T09:55:19;32.80;88.00
8593;DHT22;4334;49.982;8.398;2023-06-19T09:57:46;32.80;88.40
8593;DHT22;4334;49.982;8.398;2023-06-19T10:00:15;32.70;88.00
8593;DHT22;4334;49.982;8.398;2023-06-19T10:02:48;32.70;85.20
8593;DHT22;4334;49.982;8.398;2023-06-19T10:07:45;32.40;85.60
8593;DHT22;4334;49.982;8.398;2023-06-19T10:10:23;30.20;90.50
8593;DHT22;4334;49.982;8.398;2023-06-19T10:20:25;29.50;91.90
8593;DHT22;4334;49.982;8.398;2023-06-19T10:22:57;29.60;92.00
8593;DHT22;4334;49.982;8.398;2023-06-19T10:25:28;29.70;92.50
8593;DHT22;4334;49.982;8.398;2023-06-19T10:30:23;31.40;90.20
8593;DHT22;4334;49.982;8.398;2023-06-19T10:32:50;31.40;90.50
8593;DHT22;4334;49.982;8.398;2023-06-19T10:35:17;32.10;89.00
8593;DHT22;4334;49.982;8.398;2023-06-19T10:37:47;32.90;86.90
8593;DHT22;4334;49.982;8.398;2023-06-19T10:40:15;34.00;85.40
8593;DHT22;4334;49.982;8.398;2023-06-19T10:42:44;34.30;82.50
8593;DHT22;4334;49.982;8.398;2023-06-19T10:45:13;33.80;82.90
8593;DHT22;4334;49.982;8.398;2023-06-19T10:47:41;33.20;81.70
8593;DHT22;4334;49.982;8.398;2023-06-19T10:50:12;33.40;81.30
8593;DHT22;4334;49.982;8.398;2023-06-19T10:52:43;33.00;80.60
8593;DHT22;4334;49.982;8.398;2023-06-19T11:00:09;31.40;86.00
8593;DHT22;4334;49.982;8.398;2023-06-19T11:32:38;31.70;89.10
8593;DHT22;4334;49.982;8.398;2023-06-19T11:35:11;30.80;89.30
8593;DHT22;4334;49.982;8.398;2023-06-19T11:37:42;30.80;89.50
8593;DHT22;4334;49.982;8.398;2023-06-19T11:40:13;31.70;87.90
8593;DHT22;4334;49.982;8.398;2023-06-19T11:42:45;32.10;86.10
8593;DHT22;4334;49.982;8.398;2023-06-19T11:45:13;31.80;87.30
8593;DHT22;4334;49.982;8.398;2023-06-19T11:47:43;31.90;86.20
8593;DHT22;4334;49.982;8.398;2023-06-19T11:50:14;32.00;86.70
8593;DHT22;4334;49.982;8.398;2023-06-19T11:52:42;32.30;86.50
8593;DHT22;4334;49.982;8.398;2023-06-19T11:55:10;32.50;86.00
8593;DHT22;4334;49.982;8.398;2023-06-19T11:57:38;33.00;83.20
8593;DHT22;4334;49.982;8.398;2023-06-19T12:00:13;31.30;85.10
8593;DHT22;4334;49.982;8.398;2023-06-19T12:02:43;32.80;82.50
8593;DHT22;4334;49.982;8.398;2023-06-19T12:05:13;32.80;83.10
8593;DHT22;4334;49.982;8.398;2023-06-19T12:07:40;33.80;80.60
8593;DHT22;4334;49.982;8.398;2023-06-19T12:10:08;34.60;77.90
8593;DHT22;4334;49.982;8.398;2023-06-19T12:12:38;33.90;78.20
8593;DHT22;4334;49.982;8.398;2023-06-19T12:15:06;33.10;78.90
8593;DHT22;4334;49.982;8.398;2023-06-19T12:17:34;33.80;77.10
8593;DHT22;4334;49.982;8.398;2023-06-19T12:20:06;34.30;76.60
8593;DHT22;4334;49.982;8.398;2023-06-19T12:22:34;34.20;76.20
8593;DHT22;4334;49.982;8.398;2023-06-19T12:25:08;33.70;75.40
8593;DHT22;4334;49.982;8.398;2023-06-19T12:27:40;33.80;76.20
8593;DHT22;4334;49.982;8.398;2023-06-19T12:30:08;33.40;75.70
8593;DHT22;4334;49.982;8.398;2023-06-19T12:32:38;32.30;77.90
8593;DHT22;4334;49.982;8.398;2023-06-19T12:35:07;32.50;78.00
8593;DHT22;4334;49.982;8.398;2023-06-19T12:37:35;31.40;79.50
8593;DHT22;4334;49.982;8.398;2023-06-19T12:40:03;31.50;79.00
8593;DHT22;4334;49.982;8.398;2023-06-19T12:42:36;31.20;79.10
8593;DHT22;4334;49.982;8.398;2023-06-19T12:45:05;31.20;80.60
8593;DHT22;4334;49.982;8.398;2023-06-19T12:47:33;31.60;79.20
8593;DHT22;4334;49.982;8.398;2023-06-19T12:50:00;35.90;82.80
8593;DHT22;4334;49.982;8.398;2023-06-19T12:52:29;32.20;77.60
8593;DHT22;4334;49.982;8.398;2023-06-19T12:54:56;33.00;76.70
8593;DHT22;4334;49.982;8.398;2023-06-19T12:57:25;32.60;75.10
8593;DHT22;4334;49.982;8.398;2023-06-19T12:59:52;35.70;78.50
8593;DHT22;4334;49.982;8.398;2023-06-19T13:02:19;32.30;76.90
8593;DHT22;4334;49.982;8.398;2023-06-19T13:04:46;32.30;77.00
8593;DHT22;4334;49.982;8.398;2023-06-19T13:07:12;32.50;76.30
8593;DHT22;4334;49.982;8.398;2023-06-19T13:09:40;31.80;77.10
8593;DHT22;4334;49.982;8.398;2023-06-19T13:12:10;32.00;76.10
8593;DHT22;4334;49.982;8.398;2023-06-19T13:14:37;32.00;75.00
8593;DHT22;4334;49.982;8.398;2023-06-19T13:17:04;32.30;74.90
8593;DHT22;4334;49.982;8.398;2023-06-19T13:19:31;32.90;73.70
8593;DHT22;4334;49.982;8.398;2023-06-19T13:21:58;38.10;78.30
8593;DHT22;4334;49.982;8.398;2023-06-19T13:24:25;33.50;72.90
8593;DHT22;4334;49.982;8.398;2023-06-19T13:26:57;33.20;73.40
8593;DHT22;4334;49.982;8.398;2023-06-19T13:29:24;33.70;72.00
8593;DHT22;4334;49.982;8.398;2023-06-19T13:31:51;34.10;71.30
8593;DHT22;4334;49.982;8.398;2023-06-19T13:34:17;34.10;70.50
8593;DHT22;4334;49.982;8.398;2023-06-19T13:36:46;33.80;71.40
8593;DHT22;4334;49.982;8.398;2023-06-19T13:39:14;34.20;70.00
8593;DHT22;4334;49.982;8.398;2023-06-19T13:41:40;33.40;70.80
8593;DHT22;4334;49.982;8.398;2023-06-19T13:44:09;32.70;72.10
8593;DHT22;4334;49.982;8.398;2023-06-19T13:46:35;32.60;72.10
8593;DHT22;4334;49.982;8.398;2023-06-19T13:49:03;37.40;75.60
8593;DHT22;4334;49.982;8.398;2023-06-19T13:51:30;32.80;69.70
8593;DHT22;4334;49.982;8.398;2023-06-19T13:53:58;32.70;70.00
8593;DHT22;4334;49.982;8.398;2023-06-19T13:56:25;32.70;69.10
8593;DHT22;4334;49.982;8.398;2023-06-19T13:58:51;32.50;69.80
8593;DHT22;4334;49.982;8.398;2023-06-19T14:01:20;32.80;69.60
8593;DHT22;4334;49.982;8.398;2023-06-19T14:03:47;32.80;70.30
8593;DHT22;4334;49.982;8.398;2023-06-19T14:06:14;32.90;68.00
8593;DHT22;4334;49.982;8.398;2023-06-19T14:08:41;32.30;69.10
8593;DHT22;4334;49.982;8.398;2023-06-19T14:11:08;31.90;70.00
8593;DHT22;4334;49.982;8.398;2023-06-19T14:16:02;32.80;68.50
8593;DHT22;4334;49.982;8.398;2023-06-19T14:18:31;32.90;69.10
8593;DHT22;4334;49.982;8.398;2023-06-19T14:20:59;33.90;66.70
8593;DHT22;4334;49.982;8.398;2023-06-19T14:23:26;35.00;65.80
8593;DHT22;4334;49.982;8.398;2023-06-19T14:25:52;36.00;63.70
8593;DHT22;4334;49.982;8.398;2023-06-19T14:28:19;36.20;61.90
8593;DHT22;4334;49.982;8.398;2023-06-19T14:30:46;36.00;61.80
8593;DHT22;4334;49.982;8.398;2023-06-19T14:33:13;34.80;62.40
8593;DHT22;4334;49.982;8.398;2023-06-19T14:35:43;34.50;64.30
8593;DHT22;4334;49.982;8.398;2023-06-19T14:38:12;35.00;63.80
8593;DHT22;4334;49.982;8.398;2023-06-19T14:40:43;35.20;61.00
8593;DHT22;4334;49.982;8.398;2023-06-19T14:43:09;34.90;62.50
8593;DHT22;4334;49.982;8.398;2023-06-19T14:45:36;33.90;62.60
8593;DHT22;4334;49.982;8.398;2023-06-19T14:48:05;33.90;63.20
8593;DHT22;4334;49.982;8.398;2023-06-19T14:50:32;34.10;62.90
8593;DHT22;4334;49.982;8.398;2023-06-19T14:53:03;33.90;62.60
8593;DHT22;4334;49.982;8.398;2023-06-19T14:55:30;34.10;63.10
8593;DHT22;4334;49.982;8.398;2023-06-19T14:57:57;34.40;62.90
8593;DHT22;4334;49.982;8.398;2023-06-19T15:00:24;34.90;61.80
8593;DHT22;4334;49.982;8.398;2023-06-19T15:02:51;35.20;60.00
8593;DHT22;4334;49.982;8.398;2023-06-19T15:05:17;34.50;60.90
8593;DHT22;4334;49.982;8.398;2023-06-19T15:07:44;37.10;64.00
8593;DHT22;4334;49.982;8.398;2023-06-19T15:10:13;33.70;62.50
8593;DHT22;4334;49.982;8.398;2023-06-19T15:12:40;32.10;64.70
8593;DHT22;4334;49.982;8.398;2023-06-19T15:15:08;37.00;69.50
8593;DHT22;4334;49.982;8.398;2023-06-19T15:17:35;32.00;65.10
8593;DHT22;4334;49.982;8.398;2023-06-19T15:20:04;31.80;66.00
8593;DHT22;4334;49.982;8.398;2023-06-19T15:22:31;31.70;67.00
8593;DHT22;4334;49.982;8.398;2023-06-19T15:27:27;31.90;67.00
8593;DHT22;4334;49.982;8.398;2023-06-19T15:29:54;31.80;67.30
8593;DHT22;4334;49.982;8.398;2023-06-19T15:32:21;31.70;67.60
8593;DHT22;4334;49.982;8.398;2023-06-19T15:34:48;31.80;66.90
8593;DHT22;4334;49.982;8.398;2023-06-19T15:37:14;31.80;67.30
8593;DHT22;4334;49.982;8.398;2023-06-19T15:42:09;32.30;67.50
8593;DHT22;4334;49.982;8.398;2023-06-19T15:44:37;31.90;68.30
8593;DHT22;4334;49.982;8.398;2023-06-19T15:47:04;31.60;69.80
8593;DHT22;4334;49.982;8.398;2023-06-19T15:49:31;31.30;69.20
8593;DHT22;4334;49.982;8.398;2023-06-19T15:59:20;30.70;72.10
8593;DHT22;4334;49.982;8.398;2023-06-19T16:01:48;30.80;71.80
8593;DHT22;4334;49.982;8.398;2023-06-19T16:19:00;31.00;71.70
8593;DHT22;4334;49.982;8.398;2023-06-19T16:28:49;33.00;69.80
8593;DHT22;4334;49.982;8.398;2023-06-19T16:33:45;32.90;70.20
8593;DHT22;4334;49.982;8.398;2023-06-19T16:38:40;32.10;71.70
8593;DHT22;4334;49.982;8.398;2023-06-19T16:41:07;31.70;72.50
8593;DHT22;4334;49.982;8.398;2023-06-19T16:43:33;31.40;74.20
8593;DHT22;4334;49.982;8.398;2023-06-19T16:48:27;30.90;74.10
8593;DHT22;4334;49.982;8.398;2023-06-19T16:50:54;30.60;74.80
8593;DHT22;4334;49.982;8.398;2023-06-19T16:55:50;30.40;76.70
8593;DHT22;4334;49.982;8.398;2023-06-19T17:32:47;29.60;81.90
8593;DHT22;4334;49.982;8.398;2023-06-19T17:35:16;29.80;81.10
8593;DHT22;4334;49.982;8.398;2023-06-19T17:40:12;30.00;80.70
8593;DHT22;4334;49.982;8.398;2023-06-19T17:45:13;29.30;82.70
8593;DHT22;4334;49.982;8.398;2023-06-19T17:50:09;29.00;83.10
8593;DHT22;4334;49.982;8.398;2023-06-19T17:55:07;28.90;84.30
8593;DHT22;4334;49.982;8.398;2023-06-19T18:05:06;27.20;84.60
8593;DHT22;4334;49.982;8.398;2023-06-19T18:07:42;28.60;85.70
8593;DHT22;4334;49.982;8.398;2023-06-19T18:10:11;28.70;85.70
8593;DHT22;4334;49.982;8.398;2023-06-19T18:15:13;28.70;87.20
8593;DHT22;4334;49.982;8.398;2023-06-19T18:20:11;28.70;86.60
8593;DHT22;4334;49.982;8.398;2023-06-19T18:22:39;28.80;86.00
8593;DHT22;4334;49.982;8.398;2023-06-19T18:25:07;28.70;86.70
8593;DHT22;4334;49.982;8.398;2023-06-19T18:30:06;29.20;88.80
8593;DHT22;4334;49.982;8.398;2023-06-19T18:32:36;28.40;88.40
8593;DHT22;4334;49.982;8.398;2023-06-19T18:35:07;28.30;89.30
8593;DHT22;4334;49.982;8.398;2023-06-19T18:42:34;27.90;90.60
8593;DHT22;4334;49.982;8.398;2023-06-19T18:50:00;27.60;91.10
8593;DHT22;4334;49.982;8.398;2023-06-19T18:52:29;27.60;91.40
8593;DHT22;4334;49.982;8.398;2023-06-19T19:07:16;27.10;93.10
8593;DHT22;4334;49.982;8.398;2023-06-19T19:17:07;26.80;94.10
8593;DHT22;4334;49.982;8.398;2023-06-19T19:22:05;26.60;94.50
8593;DHT22;4334;49.982;8.398;2023-06-19T19:27:00;26.60;95.50
8593;DHT22;4334;49.982;8.398;2023-06-19T19:39:16;26.70;96.10
8593;DHT22;4334;49.982;8.398;2023-06-19T19:41:44;26.70;96.40
8593;DHT22;4334;49.982;8.398;2023-06-19T21:25:06;23.60;99.90
8593;DHT22;4334;49.982;8.398;2023-06-19T21:34:54;23.40;99.90
8593;DHT22;4334;49.982;8.398;2023-06-19T21:39:48;23.30;99.90
8593;DHT22;4334;49.982;8.398;2023-06-19T21:42:16;23.30;99.90
8593;DHT22;4334;49.982;8.398;2023-06-19T21:49:37;23.40;99.90
8593;DHT22;4334;49.982;8.398;2023-06-19T21:52:05;23.40;99.90
8593;DHT22;4334;49.982;8.398;2023-06-19T21:54:32;23.50;99.90
8593;DHT22;4334;49.982;8.398;2023-06-19T21:56:59;23.50;99.90
8593;DHT22;4334;49.982;8.398;2023-06-19T21:59:27;23.40;99.90
8593;DHT22;4334;49.982;8.398;2023-06-19T22:04:21;23.50;99.90
8593;DHT22;4334;49.982;8.398;2023-06-19T22:06:48;23.50;99.90
8593;DHT22;4334;49.982;8.398;2023-06-19T22:09:14;23.40;99.90
8593;DHT22;4334;49.982;8.398;2023-06-19T22:14:09;23.40;99.90
8593;DHT22;4334;49.982;8.398;2023-06-19T22:16:37;23.50;99.90
8593;DHT22;4334;49.982;8.398;2023-06-19T22:21:31;23.50;99.90
8593;DHT22;4334;49.982;8.398;2023-06-19T22:23:58;23.50;99.90
8593;DHT22;4334;49.982;8.398;2023-06-19T22:26:24;23.60;99.90
8593;DHT22;4334;49.982;8.398;2023-06-19T22:31:18;23.70;99.90
8593;DHT22;4334;49.982;8.398;2023-06-19T22:33:46;23.70;99.90
8593;DHT22;4334;49.982;8.398;2023-06-19T22:36:13;23.80;99.90
8593;DHT22;4334;49.982;8.398;2023-06-19T22:43:34;23.80;99.90
8593;DHT22;4334;49.982;8.398;2023-06-19T22:46:01;23.80;99.90
8593;DHT22;4334;49.982;8.398;2023-06-19T22:50:57;23.90;99.90
8593;DHT22;4334;49.982;8.398;2023-06-19T22:58:20;24.00;99.90
8593;DHT22;4334;49.982;8.398;2023-06-19T23:00:47;24.00;99.90
8593;DHT22;4334;49.982;8.398;2023-06-19T23:03:14;24.00;99.90
8593;DHT22;4334;49.982;8.398;2023-06-19T23:05:42;24.00;99.90
8593;DHT22;4334;49.982;8.398;2023-06-19T23:08:10;24.00;99.90
8593;DHT22;4334;49.982;8.398;2023-06-19T23:11:02;24.00;99.90
8593;DHT22;4334;49.982;8.398;2023-06-19T23:13:29;24.10;99.90
8593;DHT22;4334;49.982;8.398;2023-06-19T23:15:56;24.00;99.90
8593;DHT22;4334;49.982;8.398;2023-06-19T23:18:23;24.00;99.90
8593;DHT22;4334;49.982;8.398;2023-06-19T23:20:49;24.10;99.90
8593;DHT22;4334;49.982;8.398;2023-06-19T23:23:16;24.00;99.90
8593;DHT22;4334;49.982;8.398;2023-06-19T23:25:45;24.00;99.90
8593;DHT22;4334;49.982;8.398;2023-06-19T23:28:15;23.90;99.90
8593;DHT22;4334;49.982;8.398;2023-06-19T23:30:42;23.90;99.90
8593;DHT22;4334;49.982;8.398;2023-06-19T23:33:09;23.90;99.90
8593;DHT22;4334;49.982;8.398;2023-06-19T23:35:36;23.90;99.90
8593;DHT22;4334;49.982;8.398;2023-06-19T23:38:03;23.90;99.90
8593;DHT22;4334;49.982;8.398;2023-06-19T23:40:29;23.80;99.90
8593;DHT22;4334;49.982;8.398;2023-06-19T23:42:57;23.70;99.90
8593;DHT22;4334;49.982;8.398;2023-06-19T23:45:25;23.60;99.90
8593;DHT22;4334;49.982;8.398;2023-06-19T23:47:52;23.60;99.90
8593;DHT22;4334;49.982;8.398;2023-06-19T23:50:19;28.00;99.90
8593;DHT22;4334;49.982;8.398;2023-06-19T23:52:46;23.50;99.90
8593;DHT22;4334;49.982;8.398;2023-06-19T23:55:13;23.50;99.90
8593;DHT22;4334;49.982;8.398;2023-06-19T23:57:40;23.50;99.90
